createdAt,value
2018-05-08T00:00:29.836Z,39.40
2018-05-08T00:03:35.340Z,39.50
2018-05-08T00:06:40.629Z,39.80
2018-05-08T00:09:46.647Z,39.30
2018-05-08T00:12:52.256Z,39.50
2018-05-08T00:15:58.283Z,39.60
2018-05-08T00:19:03.215Z,39.70
2018-05-08T00:22:08.552Z,39.80
2018-05-08T00:25:14.257Z,39.90
2018-05-08T00:28:19.966Z,39.80
2018-05-08T00:31:27.767Z,39.90
2018-05-08T00:34:32.849Z,39.90
2018-05-08T00:37:37.940Z,40.10
2018-05-08T00:40:45.111Z,40.30
2018-05-08T00:43:51.236Z,40.40
2018-05-08T00:46:57.782Z,40.20
2018-05-08T00:50:03.282Z,40.40
2018-05-08T00:53:08.990Z,40.30
2018-05-08T00:56:16.161Z,40.30
2018-05-08T00:59:21.242Z,40.30
2018-05-08T01:02:27.743Z,40.50
2018-05-08T01:05:37.682Z,40.90
2018-05-08T01:08:42.889Z,40.90
2018-05-08T01:11:47.423Z,40.70
2018-05-08T01:14:52.097Z,40.80
2018-05-08T01:17:58.218Z,40.90
2018-05-08T01:21:04.904Z,40.90
2018-05-08T01:24:10.890Z,41.00
2018-05-08T01:27:18.047Z,41.10
2018-05-08T01:30:23.566Z,40.90
2018-05-08T01:33:28.855Z,40.90
2018-05-08T01:36:34.352Z,40.90
2018-05-08T01:39:40.068Z,41.00
2018-05-08T01:42:45.271Z,40.90
2018-05-08T01:45:49.736Z,40.90
2018-05-08T01:48:55.957Z,41.00
2018-05-08T01:52:01.311Z,41.00
2018-05-08T01:55:06.948Z,40.90
2018-05-08T01:58:12.029Z,40.90
2018-05-08T02:01:18.154Z,41.00
2018-05-08T02:04:23.853Z,41.10
2018-05-08T02:07:29.950Z,40.90
2018-05-08T02:10:34.829Z,40.90
2018-05-08T02:13:39.526Z,41.10
2018-05-08T02:16:44.609Z,41.00
2018-05-08T02:19:50.226Z,41.20
2018-05-08T02:22:55.194Z,41.20
2018-05-08T02:25:59.858Z,41.20
2018-05-08T02:29:06.194Z,41.10
2018-05-08T02:32:12.945Z,41.10
2018-05-08T02:35:18.862Z,41.00
2018-05-08T02:38:25.413Z,41.10
2018-05-08T02:41:31.966Z,41.00
2018-05-08T02:44:38.592Z,41.00
2018-05-08T02:47:43.168Z,41.10
2018-05-08T02:50:48.982Z,40.90
2018-05-08T02:53:55.126Z,40.90
2018-05-08T02:57:00.089Z,40.90
2018-05-08T03:00:05.380Z,40.70
2018-05-08T03:03:10.678Z,40.80
2018-05-08T03:06:15.752Z,40.80
2018-05-08T03:09:20.559Z,40.90
2018-05-08T03:12:27.590Z,40.90
2018-05-08T03:15:33.087Z,40.80
2018-05-08T03:18:40.054Z,40.90
2018-05-08T03:21:46.402Z,40.80
2018-05-08T03:24:52.484Z,40.80
2018-05-08T03:28:00.313Z,40.90
2018-05-08T03:31:08.845Z,40.80
2018-05-08T03:34:15.293Z,41.00
2018-05-08T03:37:21.272Z,40.90
2018-05-08T03:40:26.101Z,40.90
2018-05-08T03:43:31.901Z,40.80
2018-05-08T03:46:38.322Z,40.70
2018-05-08T03:49:43.426Z,40.80
2018-05-08T03:52:48.919Z,40.90
2018-05-08T03:55:57.098Z,40.80
2018-05-08T03:59:02.842Z,40.80
2018-05-08T04:02:20.028Z,40.80
2018-05-08T04:05:38.390Z,40.80
2018-05-08T04:08:48.823Z,40.80
2018-05-08T04:11:53.895Z,40.90
2018-05-08T04:15:00.113Z,40.90
2018-05-08T04:18:07.180Z,40.70
2018-05-08T04:21:13.514Z,40.70
2018-05-08T04:24:18.192Z,41.00
2018-05-08T04:27:23.470Z,40.80
2018-05-08T04:30:29.811Z,40.90
2018-05-08T04:33:35.727Z,40.90
2018-05-08T04:36:44.047Z,41.10
2018-05-08T04:39:49.994Z,41.10
2018-05-08T04:42:56.197Z,41.10
2018-05-08T04:46:01.424Z,41.20
2018-05-08T04:49:06.808Z,41.10
2018-05-08T04:52:12.424Z,41.20
2018-05-08T04:55:17.782Z,41.00
2018-05-08T04:58:23.501Z,40.90
2018-05-08T05:01:29.618Z,41.10
2018-05-08T05:04:34.834Z,41.00
2018-05-08T05:07:40.322Z,41.10
2018-05-08T05:10:45.924Z,41.00
2018-05-08T05:13:51.628Z,41.00
2018-05-08T05:16:58.494Z,41.10
2018-05-08T05:20:04.300Z,41.10
2018-05-08T05:23:09.262Z,41.00
2018-05-08T05:26:15.823Z,41.00
2018-05-08T05:29:22.272Z,41.00
2018-05-08T05:32:27.410Z,40.80
2018-05-08T05:35:33.052Z,41.00
2018-05-08T05:38:39.701Z,40.90
2018-05-08T05:41:46.305Z,40.90
2018-05-08T05:44:56.550Z,40.80
2018-05-08T05:48:02.579Z,40.80
2018-05-08T05:51:07.355Z,40.80
2018-05-08T05:54:12.533Z,40.60
2018-05-08T05:57:18.871Z,40.60
2018-05-08T06:00:27.505Z,40.60
2018-05-08T06:03:33.218Z,40.90
2018-05-08T06:06:40.119Z,40.80
2018-05-08T06:09:47.994Z,40.60
2018-05-08T06:12:53.894Z,40.80
2018-05-08T06:15:59.814Z,40.70
2018-05-08T06:19:05.519Z,40.90
2018-05-08T06:22:10.978Z,40.80
2018-05-08T06:25:17.568Z,40.70
2018-05-08T06:28:24.025Z,40.70
2018-05-08T06:31:29.419Z,40.80
2018-05-08T06:34:35.111Z,40.90
2018-05-08T06:37:41.583Z,41.00
2018-05-08T06:40:47.583Z,41.00
2018-05-08T06:43:53.493Z,40.90
2018-05-08T06:46:58.698Z,40.70
2018-05-08T06:50:05.073Z,40.90
2018-05-08T06:53:12.509Z,41.10
2018-05-08T06:56:18.333Z,41.00
2018-05-08T06:59:23.507Z,41.10
2018-05-08T07:02:30.887Z,41.40
2018-05-08T07:05:38.483Z,41.40
2018-05-08T07:08:43.793Z,41.60
2018-05-08T07:11:49.835Z,41.70
2018-05-08T07:14:56.495Z,41.80
2018-05-08T07:18:03.408Z,41.50
2018-05-08T07:21:08.613Z,41.40
2018-05-08T07:24:14.506Z,41.40
2018-05-08T07:27:21.157Z,41.60
2018-05-08T07:30:26.372Z,41.50
2018-05-08T07:33:32.071Z,41.50
2018-05-08T07:36:38.604Z,41.60
2018-05-08T07:39:42.981Z,41.40
2018-05-08T07:42:48.664Z,41.40
2018-05-08T07:45:55.094Z,41.50
2018-05-08T07:49:01.649Z,41.60
2018-05-08T07:52:06.836Z,41.80
2018-05-08T07:55:15.595Z,41.70
2018-05-08T07:58:21.300Z,41.60
2018-05-08T08:01:26.432Z,41.70
2018-05-08T08:04:33.222Z,41.70
2018-05-08T08:07:39.675Z,41.80
2018-05-08T08:10:45.325Z,41.70
2018-05-08T08:13:50.589Z,42.00
2018-05-08T08:16:55.854Z,42.30
2018-05-08T08:20:02.390Z,42.30
2018-05-08T08:23:07.396Z,42.60
2018-05-08T08:26:12.776Z,42.30
2018-05-08T08:29:17.871Z,42.20
2018-05-08T08:32:23.463Z,42.00
2018-05-08T08:35:29.896Z,42.10
2018-05-08T08:38:34.979Z,42.20
2018-05-08T08:41:41.142Z,42.20
2018-05-08T08:44:46.148Z,42.40
2018-05-08T08:47:51.810Z,42.20
2018-05-08T08:50:57.511Z,42.30
2018-05-08T08:54:04.157Z,42.30
2018-05-08T08:57:10.038Z,42.20
2018-05-08T09:00:15.996Z,42.50
2018-05-08T09:03:21.355Z,42.20
2018-05-08T09:06:27.319Z,42.30
2018-05-08T09:09:33.750Z,42.30
2018-05-08T09:12:39.577Z,42.20
2018-05-08T09:15:44.751Z,42.20
2018-05-08T09:18:50.457Z,42.40
2018-05-08T09:21:56.383Z,42.10
2018-05-08T09:25:03.975Z,42.30
2018-05-08T09:28:08.432Z,42.30
2018-05-08T09:31:14.163Z,42.10
2018-05-08T09:34:20.069Z,42.10
2018-05-08T09:37:27.428Z,42.40
2018-05-08T09:40:33.020Z,42.30
2018-05-08T09:43:39.577Z,42.40
2018-05-08T09:46:46.444Z,42.50
2018-05-08T09:49:52.004Z,42.60
2018-05-08T09:52:58.280Z,42.50
2018-05-08T09:56:02.851Z,42.70
2018-05-08T09:59:09.443Z,42.90
2018-05-08T10:02:14.049Z,42.90
2018-05-08T10:05:20.217Z,43.00
2018-05-08T10:08:25.852Z,43.20
2018-05-08T10:11:32.341Z,43.40
2018-05-08T10:14:37.364Z,43.20
2018-05-08T10:17:42.240Z,43.50
2018-05-08T10:20:47.382Z,43.50
2018-05-08T10:23:52.270Z,43.30
2018-05-08T10:26:58.790Z,43.40
2018-05-08T10:30:03.661Z,43.60
2018-05-08T10:33:09.588Z,43.40
2018-05-08T10:36:14.870Z,43.40
2018-05-08T10:39:19.750Z,43.80
2018-05-08T10:42:24.574Z,44.30
2018-05-08T10:45:30.348Z,44.00
2018-05-08T10:48:35.265Z,44.00
2018-05-08T10:51:41.236Z,44.40
2018-05-08T10:54:46.450Z,44.20
2018-05-08T10:57:51.702Z,44.30
2018-05-08T11:00:58.461Z,44.40
2018-05-08T11:04:03.724Z,44.20
2018-05-08T11:07:08.630Z,44.40
2018-05-08T11:10:13.832Z,44.60
2018-05-08T11:13:19.423Z,44.30
2018-05-08T11:16:24.188Z,44.40
2018-05-08T11:19:29.377Z,44.10
2018-05-08T11:22:35.300Z,44.10
2018-05-08T11:25:41.086Z,43.80
2018-05-08T11:28:46.179Z,43.70
2018-05-08T11:31:52.841Z,43.70
2018-05-08T11:34:58.569Z,44.10
2018-05-08T11:38:03.769Z,44.00
2018-05-08T11:41:08.749Z,43.80
2018-05-08T11:44:14.078Z,43.70
2018-05-08T11:47:19.682Z,43.60
2018-05-08T11:50:25.636Z,43.50
2018-05-08T11:53:31.349Z,43.30
2018-05-08T11:56:36.436Z,43.30
2018-05-08T11:59:40.639Z,43.30
2018-05-08T12:02:45.681Z,43.10
2018-05-08T12:05:51.256Z,42.90
2018-05-08T12:08:57.179Z,42.60
2018-05-08T12:12:03.316Z,42.60
2018-05-08T12:15:08.504Z,42.60
2018-05-08T12:18:14.316Z,43.00
2018-05-08T12:21:19.096Z,43.00
2018-05-08T12:24:24.082Z,42.80
2018-05-08T12:27:29.459Z,42.60
2018-05-08T12:30:35.276Z,42.50
2018-05-08T12:33:41.392Z,42.60
2018-05-08T12:36:47.728Z,42.40
2018-05-08T12:39:52.284Z,42.50
2018-05-08T12:42:57.474Z,42.30
2018-05-08T12:46:03.501Z,41.90
2018-05-08T12:49:09.732Z,41.70
2018-05-08T12:52:15.760Z,41.50
2018-05-08T12:55:21.158Z,41.40
2018-05-08T12:58:26.662Z,41.20
2018-05-08T13:01:32.987Z,41.10
2018-05-08T13:04:39.740Z,41.00
2018-05-08T13:07:45.660Z,41.00
2018-05-08T13:10:51.396Z,40.90
2018-05-08T13:13:58.216Z,41.10
2018-05-08T13:17:03.298Z,40.90
2018-05-08T13:20:09.543Z,40.90
2018-05-08T13:23:15.359Z,40.90
2018-05-08T13:26:20.344Z,40.30
2018-05-08T13:29:25.634Z,41.20
2018-05-08T13:32:31.049Z,41.60
2018-05-08T13:35:37.361Z,41.40
2018-05-08T13:38:42.248Z,41.30
2018-05-08T13:41:48.137Z,41.60
2018-05-08T13:44:54.278Z,41.60
2018-05-08T13:47:59.058Z,41.30
2018-05-08T13:51:04.136Z,41.30
2018-05-08T13:54:10.158Z,41.30
2018-05-08T13:57:17.772Z,40.70
2018-05-08T14:00:22.690Z,40.70
2018-05-08T14:03:28.069Z,40.60
2018-05-08T14:06:34.571Z,40.80
2018-05-08T14:09:41.521Z,40.50
2018-05-08T14:12:47.442Z,40.50
2018-05-08T14:15:53.050Z,40.50
2018-05-08T14:18:58.440Z,40.20
2018-05-08T14:22:03.316Z,40.40
2018-05-08T14:25:20.308Z,39.90
2018-05-08T14:28:26.716Z,39.90
2018-05-08T14:31:32.641Z,39.90
2018-05-08T14:34:39.528Z,39.90
2018-05-08T14:37:44.521Z,39.70
2018-05-08T14:40:50.030Z,39.50
2018-05-08T14:43:54.683Z,39.30
2018-05-08T14:46:59.292Z,39.20
2018-05-08T14:50:04.942Z,39.20
2018-05-08T14:53:10.735Z,39.00
2018-05-08T14:56:16.358Z,38.80
2018-05-08T14:59:23.111Z,39.10
2018-05-08T15:02:28.140Z,39.00
2018-05-08T15:05:34.177Z,38.80
2018-05-08T15:08:39.983Z,39.00
2018-05-08T15:11:45.397Z,38.70
2018-05-08T15:14:51.028Z,38.70
2018-05-08T15:17:56.132Z,38.70
2018-05-08T15:21:02.351Z,38.70
2018-05-08T15:24:09.020Z,39.20
2018-05-08T15:27:15.337Z,39.20
2018-05-08T15:30:21.256Z,39.10
2018-05-08T15:33:27.184Z,38.80
2018-05-08T15:36:32.002Z,38.80
2018-05-08T15:39:37.126Z,39.00
2018-05-08T15:42:42.630Z,38.80
2018-05-08T15:45:47.480Z,38.90
2018-05-08T15:48:53.532Z,39.30
2018-05-08T15:51:59.243Z,39.60
2018-05-08T15:55:04.429Z,39.60
2018-05-08T15:58:11.379Z,39.30
2018-05-08T16:01:15.743Z,39.10
2018-05-08T16:04:20.291Z,39.20
2018-05-08T16:07:25.172Z,39.10
2018-05-08T16:10:31.929Z,39.20
2018-05-08T16:13:37.017Z,39.20
2018-05-08T16:16:41.883Z,38.90
2018-05-08T16:19:46.961Z,38.80
2018-05-08T16:22:52.177Z,39.30
2018-05-08T16:25:57.549Z,39.30
2018-05-08T16:29:02.584Z,39.30
2018-05-08T16:32:09.490Z,39.40
2018-05-08T16:35:16.353Z,39.40
2018-05-08T16:38:21.475Z,39.30
2018-05-08T16:41:27.051Z,39.30
2018-05-08T16:44:33.400Z,39.30
2018-05-08T16:47:38.355Z,39.30
2018-05-08T16:50:43.537Z,39.30
2018-05-08T16:53:49.571Z,39.30
2018-05-08T16:56:56.210Z,39.30
2018-05-08T17:00:01.558Z,39.30
2018-05-08T17:03:07.114Z,39.30
2018-05-08T17:06:12.202Z,39.50
2018-05-08T17:09:19.174Z,40.00
2018-05-08T17:12:25.550Z,40.30
2018-05-08T17:15:30.652Z,40.20
2018-05-08T17:18:36.136Z,40.30
2018-05-08T17:21:42.174Z,40.20
2018-05-08T17:24:48.953Z,40.90
2018-05-08T17:27:53.372Z,40.10
2018-05-08T17:30:59.966Z,40.00
2018-05-08T17:34:04.743Z,40.00
2018-05-08T17:37:11.069Z,39.80
2018-05-08T17:40:16.728Z,39.90
2018-05-08T17:43:22.045Z,39.80
2018-05-08T17:46:27.670Z,39.80
2018-05-08T17:49:32.967Z,39.70
2018-05-08T17:52:39.196Z,39.70
2018-05-08T17:55:43.966Z,39.60
2018-05-08T17:58:48.840Z,39.60
2018-05-08T18:01:54.761Z,39.60
2018-05-08T18:05:00.266Z,39.60
2018-05-08T18:08:06.526Z,39.60
2018-05-08T18:11:12.204Z,39.60
2018-05-08T18:14:17.388Z,39.50
2018-05-08T18:17:24.163Z,39.40
2018-05-08T18:20:31.301Z,39.40
2018-05-08T18:23:36.401Z,39.40
2018-05-08T18:26:41.168Z,39.30
2018-05-08T18:29:47.613Z,39.30
2018-05-08T18:32:51.834Z,39.40
2018-05-08T18:35:57.880Z,39.40
2018-05-08T18:39:03.485Z,39.40
2018-05-08T18:42:08.956Z,39.40
2018-05-08T18:45:14.384Z,39.30
2018-05-08T18:48:20.140Z,39.40
2018-05-08T18:51:25.488Z,39.30
2018-05-08T18:54:31.503Z,39.30
2018-05-08T18:57:36.959Z,39.20
2018-05-08T19:00:48.254Z,39.30
2018-05-08T19:03:54.801Z,39.10
2018-05-08T19:07:00.009Z,39.30
2018-05-08T19:10:07.266Z,39.30
2018-05-08T19:13:13.180Z,39.20
2018-05-08T19:16:18.730Z,39.10
2018-05-08T19:19:31.075Z,39.20
2018-05-08T19:22:36.281Z,39.20
2018-05-08T19:25:41.832Z,39.10
2018-05-08T19:28:52.882Z,39.00
2018-05-08T19:31:58.673Z,39.00
2018-05-08T19:35:10.277Z,39.10
2018-05-08T19:38:21.218Z,39.20
2018-05-08T19:41:27.342Z,39.10
2018-05-08T19:44:33.994Z,39.10
2018-05-08T19:47:40.337Z,39.00
2018-05-08T19:50:47.186Z,39.00
2018-05-08T19:53:52.478Z,39.00
2018-05-08T19:56:57.978Z,39.10
2018-05-08T20:00:03.269Z,39.10
2018-05-08T20:03:08.448Z,39.20
2018-05-08T20:06:14.607Z,39.20
2018-05-08T20:09:19.986Z,39.20
2018-05-08T20:12:26.008Z,39.10
2018-05-08T20:15:31.104Z,38.90
2018-05-08T20:18:36.296Z,38.70
2018-05-08T20:21:41.984Z,38.80
2018-05-08T20:24:46.440Z,38.80
2018-05-08T20:27:51.546Z,39.10
2018-05-08T20:30:56.790Z,39.00
2018-05-08T20:34:02.288Z,39.00
2018-05-08T20:37:09.278Z,38.80
2018-05-08T20:40:14.148Z,38.90
2018-05-08T20:43:19.033Z,39.00
2018-05-08T20:46:26.314Z,39.30
2018-05-08T20:49:31.701Z,39.00
2018-05-08T20:52:37.560Z,38.80
2018-05-08T20:55:42.371Z,38.80
2018-05-08T20:58:48.202Z,39.00
2018-05-08T21:01:54.546Z,38.90
2018-05-08T21:04:59.931Z,38.90
2018-05-08T21:08:05.446Z,39.20
2018-05-08T21:11:12.825Z,39.00
2018-05-08T21:14:18.250Z,39.00
2018-05-08T21:17:22.881Z,39.00
2018-05-08T21:20:28.845Z,39.00
2018-05-08T21:23:34.095Z,39.00
2018-05-08T21:26:39.590Z,38.90
2018-05-08T21:29:51.258Z,38.90
2018-05-08T21:32:56.288Z,38.80
2018-05-08T21:36:01.096Z,38.80
2018-05-08T21:39:07.060Z,38.90
2018-05-08T21:42:11.435Z,38.80
2018-05-08T21:45:16.580Z,38.80
2018-05-08T21:48:22.907Z,38.90
2018-05-08T21:51:28.818Z,39.10
2018-05-08T21:54:34.737Z,39.30
2018-05-08T21:57:40.466Z,39.00
2018-05-08T22:00:47.482Z,38.90
2018-05-08T22:03:52.357Z,38.90
2018-05-08T22:06:57.729Z,38.90
2018-05-08T22:10:06.832Z,38.90
2018-05-08T22:13:12.804Z,38.90
2018-05-08T22:16:18.679Z,39.00
2018-05-08T22:19:24.089Z,38.90
2018-05-08T22:22:29.524Z,38.80
2018-05-08T22:25:34.039Z,38.90
2018-05-08T22:28:39.427Z,39.30
2018-05-08T22:31:44.315Z,39.00
2018-05-08T22:34:49.379Z,38.90
2018-05-08T22:37:54.981Z,38.90
2018-05-08T22:41:00.383Z,38.80
2018-05-08T22:44:05.465Z,39.00
2018-05-08T22:47:11.063Z,38.80
2018-05-08T22:50:15.753Z,39.00
2018-05-08T22:53:20.635Z,39.10
2018-05-08T22:56:26.316Z,39.00
2018-05-08T22:59:31.887Z,39.00
2018-05-08T23:02:36.985Z,39.10
2018-05-08T23:05:42.507Z,38.80
2018-05-08T23:08:48.224Z,38.80
2018-05-08T23:11:53.056Z,38.80
2018-05-08T23:14:58.871Z,38.80
2018-05-08T23:18:03.856Z,39.00
2018-05-08T23:21:09.286Z,39.10
2018-05-08T23:24:14.058Z,39.00
2018-05-08T23:27:18.937Z,39.00
2018-05-08T23:30:24.843Z,38.70
2018-05-08T23:33:30.761Z,38.90
2018-05-08T23:36:35.432Z,38.80
2018-05-08T23:39:46.986Z,38.90
2018-05-08T23:42:51.972Z,38.90
2018-05-08T23:45:58.401Z,39.00
2018-05-08T23:49:02.767Z,38.80
2018-05-08T23:52:08.211Z,38.90
2018-05-08T23:55:13.448Z,39.00
2018-05-08T23:58:19.949Z,38.80
